createdAt,value
2022-11-05T00:00:38.428Z,12.50
2022-11-05T00:03:24.562Z,12.05
2022-11-05T00:08:59.975Z,11.52
2022-11-05T00:11:46.091Z,8.68
2022-11-05T00:16:59.745Z,11.32
2022-11-05T00:19:27.071Z,12.23
2022-11-05T00:22:20.235Z,12.02
2022-11-05T00:25:05.787Z,10.98
2022-11-05T00:27:34.143Z,13.68
2022-11-05T00:30:05.952Z,13.00
2022-11-05T00:32:33.772Z,12.48
2022-11-05T00:35:00.963Z,14.45
2022-11-05T00:37:28.731Z,14.57
2022-11-05T00:39:55.888Z,17.13
2022-11-05T00:42:41.833Z,12.40
2022-11-05T00:45:09.732Z,15.48
2022-11-05T00:47:57.121Z,12.60
2022-11-05T00:50:24.858Z,17.00
2022-11-05T00:52:55.888Z,12.63
2022-11-05T00:55:37.299Z,17.05
2022-11-05T00:58:09.928Z,15.73
2022-11-05T01:00:41.586Z,15.98
2022-11-05T01:03:17.787Z,13.88
2022-11-05T01:05:53.296Z,14.13
2022-11-05T01:08:23.924Z,13.25
2022-11-05T01:10:56.615Z,11.60
2022-11-05T01:13:29.028Z,14.57
2022-11-05T01:15:57.776Z,13.15
2022-11-05T01:18:25.469Z,13.48
2022-11-05T01:20:53.085Z,13.10
2022-11-05T01:23:20.762Z,12.10
2022-11-05T01:25:48.455Z,13.20
2022-11-05T01:28:15.667Z,13.35
2022-11-05T01:30:42.817Z,10.63
2022-11-05T01:33:10.353Z,14.40
2022-11-05T01:35:39.774Z,13.93
2022-11-05T01:38:06.893Z,11.25
2022-11-05T01:40:34.143Z,12.00
2022-11-05T01:43:01.340Z,15.90
2022-11-05T01:45:29.200Z,12.25
2022-11-05T01:48:17.342Z,13.65
2022-11-05T01:51:05.309Z,15.43
2022-11-05T01:54:08.296Z,11.77
2022-11-05T01:56:52.388Z,13.68
2022-11-05T01:59:39.971Z,15.18
2022-11-05T02:02:08.809Z,12.50
2022-11-05T02:04:59.940Z,14.35
2022-11-05T02:07:29.466Z,15.13
2022-11-05T02:10:13.875Z,12.23
2022-11-05T02:12:47.743Z,15.45
2022-11-05T02:15:25.212Z,13.90
2022-11-05T02:18:28.147Z,12.00
2022-11-05T02:21:27.603Z,12.45
2022-11-05T02:24:52.450Z,12.95
2022-11-05T02:28:09.866Z,14.73
2022-11-05T02:34:08.574Z,15.38
2022-11-05T02:37:33.055Z,12.55
2022-11-05T02:40:16.779Z,12.82
2022-11-05T02:43:26.536Z,11.85
2022-11-05T02:46:32.816Z,15.10
2022-11-05T02:49:39.920Z,11.98
2022-11-05T02:55:38.287Z,12.07
2022-11-05T02:58:06.139Z,14.10
2022-11-05T03:00:49.648Z,14.05
2022-11-05T03:03:49.692Z,10.70
2022-11-05T03:07:00.775Z,10.07
2022-11-05T03:10:24.594Z,8.05
2022-11-05T03:13:31.452Z,11.25
2022-11-05T03:16:20.482Z,8.98
2022-11-05T03:19:18.152Z,8.75
2022-11-05T03:21:53.796Z,11.68
2022-11-05T03:27:20.483Z,18.38
2022-11-05T03:29:54.907Z,10.00
2022-11-05T03:32:23.921Z,11.13
2022-11-05T03:35:02.471Z,9.65
2022-11-05T03:37:36.404Z,13.02
2022-11-05T03:40:09.487Z,8.65
2022-11-05T03:42:43.580Z,8.95
2022-11-05T03:45:20.547Z,10.45
2022-11-05T03:47:51.236Z,9.48
2022-11-05T03:50:41.502Z,10.18
2022-11-05T03:53:30.506Z,12.93
2022-11-05T03:56:45.065Z,15.30
2022-11-05T03:59:13.384Z,16.25
2022-11-05T04:01:42.749Z,13.10
2022-11-05T04:04:10.255Z,12.60
2022-11-05T04:06:56.051Z,12.40
2022-11-05T04:09:42.036Z,10.82
2022-11-05T04:14:58.413Z,12.88
2022-11-05T04:17:25.563Z,9.27
2022-11-05T04:20:31.053Z,10.45
2022-11-05T04:23:23.497Z,7.78
2022-11-05T04:25:50.980Z,8.15
2022-11-05T04:28:18.386Z,7.22
2022-11-05T04:30:46.571Z,9.85
2022-11-05T04:33:17.543Z,8.75
2022-11-05T04:35:48.590Z,11.10
2022-11-05T04:38:19.867Z,9.35
2022-11-05T04:40:48.123Z,10.77
2022-11-05T04:43:19.545Z,11.65
2022-11-05T04:45:47.656Z,11.95
2022-11-05T04:48:14.889Z,15.15
2022-11-05T04:50:42.120Z,14.52
2022-11-05T04:53:09.496Z,13.10
2022-11-05T04:55:36.953Z,12.75
2022-11-05T04:58:04.562Z,16.90
2022-11-05T05:00:31.778Z,12.43
2022-11-05T05:02:58.932Z,14.10
2022-11-05T05:05:26.190Z,12.95
2022-11-05T05:07:53.307Z,11.00
2022-11-05T05:10:20.578Z,11.73
2022-11-05T05:12:48.424Z,10.65
2022-11-05T05:15:15.899Z,11.13
2022-11-05T05:17:43.155Z,8.45
2022-11-05T05:20:29.007Z,10.57
2022-11-05T05:22:56.361Z,9.20
2022-11-05T05:25:23.890Z,12.65
2022-11-05T05:27:51.229Z,10.98
2022-11-05T05:30:18.699Z,11.00
2022-11-05T05:32:46.416Z,11.32
2022-11-05T05:35:13.622Z,9.77
2022-11-05T05:37:40.851Z,8.80
2022-11-05T05:40:09.933Z,9.70
2022-11-05T05:42:42.709Z,10.38
2022-11-05T05:45:12.322Z,11.00
2022-11-05T05:47:39.710Z,11.68
2022-11-05T05:50:07.140Z,10.30
2022-11-05T05:52:34.382Z,13.15
2022-11-05T05:55:01.594Z,10.25
2022-11-05T05:57:28.743Z,10.77
2022-11-05T05:59:55.852Z,10.90
2022-11-05T06:02:23.288Z,11.00
2022-11-05T06:04:50.502Z,9.40
2022-11-05T06:07:17.647Z,9.77
2022-11-05T06:09:44.802Z,10.13
2022-11-05T06:12:12.460Z,8.32
2022-11-05T06:14:39.730Z,7.47
2022-11-05T06:17:09.982Z,7.78
2022-11-05T06:19:37.082Z,7.07
2022-11-05T06:22:04.274Z,8.13
2022-11-05T06:24:31.396Z,6.07
2022-11-05T06:26:58.563Z,6.45
2022-11-05T06:29:25.798Z,6.65
2022-11-05T06:31:52.949Z,5.97
2022-11-05T06:34:20.082Z,7.05
2022-11-05T06:36:47.319Z,7.78
2022-11-05T06:39:14.502Z,7.68
2022-11-05T06:42:17.225Z,6.57
2022-11-05T06:44:28.864Z,5.38
2022-11-05T06:46:56.043Z,5.68
2022-11-05T06:49:24.683Z,6.07
2022-11-05T06:51:52.792Z,4.13
2022-11-05T06:54:19.972Z,4.85
2022-11-05T06:56:47.198Z,9.02
2022-11-05T06:59:14.771Z,5.38
2022-11-05T07:01:42.206Z,5.78
2022-11-05T07:04:12.471Z,4.97
2022-11-05T07:06:39.744Z,6.78
2022-11-05T07:09:07.034Z,5.30
2022-11-05T07:11:34.254Z,5.30
2022-11-05T07:14:01.478Z,5.07
2022-11-05T07:16:28.708Z,7.13
2022-11-05T07:18:56.023Z,4.05
2022-11-05T07:21:23.206Z,4.45
2022-11-05T07:23:50.583Z,3.65
2022-11-05T07:26:17.900Z,4.75
2022-11-05T07:28:45.369Z,5.20
2022-11-05T07:31:12.541Z,4.85
2022-11-05T07:33:39.770Z,3.88
2022-11-05T07:36:07.607Z,4.80
2022-11-05T07:38:34.799Z,7.72
2022-11-05T07:41:02.061Z,3.35
2022-11-05T07:43:29.336Z,5.28
2022-11-05T07:45:56.658Z,3.22
2022-11-05T07:48:23.932Z,5.03
2022-11-05T07:50:53.122Z,7.43
2022-11-05T07:53:21.143Z,7.32
2022-11-05T07:55:48.421Z,5.95
2022-11-05T07:58:15.607Z,6.85
2022-11-05T08:00:43.030Z,6.97
2022-11-05T08:03:18.623Z,19.50
2022-11-05T08:05:48.154Z,16.50
2022-11-05T08:08:18.902Z,12.55
2022-11-05T08:10:46.788Z,5.60
2022-11-05T08:13:15.530Z,5.43
2022-11-05T08:15:43.492Z,4.90
2022-11-05T08:18:22.110Z,5.05
2022-11-05T08:20:49.405Z,4.28
2022-11-05T08:23:16.583Z,6.82
2022-11-05T08:25:43.801Z,5.45
2022-11-05T08:28:13.005Z,6.72
2022-11-05T08:30:40.756Z,4.75
2022-11-05T08:33:12.554Z,7.68
2022-11-05T08:35:41.005Z,6.22
2022-11-05T08:38:13.813Z,3.58
2022-11-05T08:40:42.957Z,6.10
2022-11-05T08:43:13.943Z,5.70
2022-11-05T08:45:42.381Z,6.10
2022-11-05T08:48:17.133Z,6.47
2022-11-05T08:50:47.631Z,5.17
2022-11-05T08:53:15.704Z,7.15
2022-11-05T08:55:44.235Z,6.20
2022-11-05T08:58:16.826Z,9.00
2022-11-05T09:00:48.244Z,6.97
2022-11-05T09:03:16.242Z,5.60
2022-11-05T09:05:43.969Z,7.30
2022-11-05T09:08:16.583Z,7.07
2022-11-05T09:10:46.154Z,7.63
2022-11-05T09:13:18.969Z,7.57
2022-11-05T09:15:50.946Z,8.02
2022-11-05T09:18:19.947Z,5.00
2022-11-05T09:20:47.674Z,5.85
2022-11-05T09:23:16.200Z,9.27
2022-11-05T09:25:44.664Z,5.38
2022-11-05T09:28:20.252Z,8.15
2022-11-05T09:30:50.952Z,6.75
2022-11-05T09:33:23.089Z,8.98
2022-11-05T09:35:51.832Z,8.57
2022-11-05T09:38:19.776Z,13.93
2022-11-05T09:41:12.644Z,9.88
2022-11-05T09:43:58.538Z,7.55
2022-11-05T09:46:39.752Z,8.20
2022-11-05T09:49:22.880Z,7.50
2022-11-05T09:51:52.018Z,8.57
2022-11-05T09:54:24.690Z,7.80
2022-11-05T09:56:54.009Z,8.07
2022-11-05T09:59:42.011Z,6.93
2022-11-05T10:02:34.762Z,7.20
2022-11-05T10:05:10.369Z,8.93
2022-11-05T10:10:43.381Z,8.25
2022-11-05T10:13:48.033Z,8.50
2022-11-05T10:16:41.997Z,8.88
2022-11-05T10:19:31.128Z,9.23
2022-11-05T10:22:13.136Z,8.73
2022-11-05T10:24:47.116Z,8.40
2022-11-05T10:27:29.458Z,11.18
2022-11-05T10:29:57.016Z,8.00
2022-11-05T10:32:41.422Z,9.23
2022-11-05T10:35:18.535Z,6.30
2022-11-05T10:37:46.729Z,6.75
2022-11-05T10:40:36.060Z,8.80
2022-11-05T10:43:21.596Z,7.18
2022-11-05T10:46:32.457Z,7.07
2022-11-05T10:49:58.851Z,8.50
2022-11-05T10:52:42.256Z,7.78
2022-11-05T10:55:27.670Z,7.53
2022-11-05T10:57:57.138Z,6.72
2022-11-05T11:00:28.397Z,6.75
2022-11-05T11:03:04.030Z,4.85
2022-11-05T11:05:37.204Z,6.55
2022-11-05T11:08:13.294Z,7.85
2022-11-05T11:10:57.196Z,5.65
2022-11-05T11:13:59.069Z,6.50
2022-11-05T11:16:38.207Z,5.32
2022-11-05T11:19:21.397Z,5.88
2022-11-05T11:22:15.864Z,6.15
2022-11-05T11:24:48.163Z,7.97
2022-11-05T11:27:29.486Z,6.97
2022-11-05T11:30:03.717Z,7.97
2022-11-05T11:32:40.075Z,7.95
2022-11-05T11:35:23.933Z,6.40
2022-11-05T11:37:57.346Z,7.45
2022-11-05T11:40:36.129Z,8.45
2022-11-05T11:43:28.088Z,9.20
2022-11-05T11:46:03.719Z,6.72
2022-11-05T11:48:36.460Z,10.52
2022-11-05T11:51:49.455Z,11.02
2022-11-05T11:54:28.605Z,8.95
2022-11-05T11:56:56.401Z,7.05
2022-11-05T12:00:01.781Z,11.35
2022-11-05T12:02:51.835Z,7.32
2022-11-05T12:06:51.244Z,11.65
2022-11-05T12:09:58.229Z,6.45
2022-11-05T12:13:16.501Z,13.18
2022-11-05T12:16:11.502Z,20.23
2022-11-05T12:19:34.243Z,12.40
2022-11-05T12:22:38.444Z,6.47
2022-11-05T12:25:42.444Z,7.43
2022-11-05T12:29:04.506Z,9.20
2022-11-05T12:32:35.029Z,5.93
2022-11-05T12:35:44.178Z,8.25
2022-11-05T12:39:01.626Z,14.88
2022-11-05T12:42:00.352Z,10.95
2022-11-05T12:45:16.409Z,9.02
2022-11-05T12:48:23.240Z,14.23
2022-11-05T12:51:17.443Z,7.82
2022-11-05T12:54:04.075Z,6.93
2022-11-05T12:56:54.240Z,7.53
2022-11-05T13:00:20.337Z,9.15
2022-11-05T13:03:17.256Z,6.18
2022-11-05T13:06:06.728Z,9.60
2022-11-05T13:08:47.960Z,6.95
2022-11-05T13:11:37.739Z,8.50
2022-11-05T13:14:25.749Z,8.25
2022-11-05T13:17:12.664Z,5.93
2022-11-05T13:20:01.555Z,6.75
2022-11-05T13:22:50.976Z,11.75
2022-11-05T13:25:45.231Z,6.22
2022-11-05T13:28:47.735Z,9.57
2022-11-05T13:31:23.629Z,8.40
2022-11-05T13:33:52.996Z,10.60
2022-11-05T13:37:14.809Z,7.20
2022-11-05T13:39:57.254Z,6.78
2022-11-05T13:42:47.454Z,8.75
2022-11-05T13:46:02.840Z,9.15
2022-11-05T13:49:06.330Z,6.50
2022-11-05T13:51:47.706Z,6.18
2022-11-05T13:55:16.244Z,8.02
2022-11-05T13:58:14.136Z,7.82
2022-11-05T14:01:27.527Z,7.45
2022-11-05T14:03:56.610Z,5.88
2022-11-05T14:06:36.218Z,7.32
2022-11-05T14:09:11.278Z,6.25
2022-11-05T14:11:49.997Z,6.50
2022-11-05T14:14:29.667Z,5.97
2022-11-05T14:17:08.913Z,7.75
2022-11-05T14:20:04.903Z,6.20
2022-11-05T14:22:31.867Z,5.28
2022-11-05T14:25:02.063Z,4.95
2022-11-05T14:27:29.035Z,6.65
2022-11-05T14:29:57.455Z,5.57
2022-11-05T14:32:42.913Z,6.57
2022-11-05T14:35:16.049Z,6.28
2022-11-05T14:37:56.794Z,5.45
2022-11-05T14:40:43.920Z,6.32
2022-11-05T14:43:14.396Z,5.93
2022-11-05T14:46:08.463Z,6.03
2022-11-05T14:48:54.243Z,6.88
2022-11-05T14:51:35.946Z,6.60
2022-11-05T14:54:18.221Z,7.35
2022-11-05T14:56:56.470Z,6.05
2022-11-05T14:59:31.671Z,6.13
2022-11-05T15:02:05.883Z,5.47
2022-11-05T15:04:36.258Z,6.38
2022-11-05T15:07:03.286Z,6.63
2022-11-05T15:09:56.115Z,6.68
2022-11-05T15:12:38.126Z,6.82
2022-11-05T15:15:32.704Z,6.35
2022-11-05T15:18:30.526Z,6.63
2022-11-05T15:21:02.264Z,7.07
2022-11-05T15:23:42.360Z,10.20
2022-11-05T15:27:12.735Z,8.45
2022-11-05T15:29:40.778Z,6.28
2022-11-05T15:32:18.638Z,7.05
2022-11-05T15:34:56.306Z,8.73
2022-11-05T15:37:27.751Z,7.88
2022-11-05T15:39:55.794Z,8.43
2022-11-05T15:42:27.063Z,8.15
2022-11-05T15:44:57.925Z,7.43
2022-11-05T15:47:30.154Z,8.45
2022-11-05T15:50:08.647Z,7.20
2022-11-05T15:52:49.348Z,6.93
2022-11-05T15:55:25.707Z,8.10
2022-11-05T15:58:04.657Z,13.45
2022-11-05T16:00:36.401Z,11.43
2022-11-05T16:03:32.667Z,9.65
2022-11-05T16:06:01.777Z,10.70
2022-11-05T16:08:30.611Z,13.63
2022-11-05T16:11:01.747Z,15.05
2022-11-05T16:13:41.895Z,14.48
2022-11-05T16:16:15.192Z,18.27
2022-11-05T16:18:44.887Z,9.82
2022-11-05T16:21:19.099Z,11.48
2022-11-05T16:23:49.079Z,8.35
2022-11-05T16:27:01.737Z,9.15
2022-11-05T16:29:57.312Z,11.18
2022-11-05T16:32:31.322Z,9.75
2022-11-05T16:35:06.121Z,9.80
2022-11-05T16:37:40.943Z,9.75
2022-11-05T16:40:20.426Z,9.80
2022-11-05T16:42:51.136Z,12.15
2022-11-05T16:45:24.101Z,10.30
2022-11-05T16:47:51.463Z,10.45
2022-11-05T16:50:18.547Z,10.45
2022-11-05T16:52:47.127Z,10.90
2022-11-05T16:55:16.152Z,10.68
2022-11-05T16:57:49.542Z,10.90
2022-11-05T17:00:20.393Z,12.60
2022-11-05T17:02:48.299Z,9.50
2022-11-05T17:05:25.888Z,10.18
2022-11-05T17:07:54.355Z,11.50
2022-11-05T17:10:24.211Z,9.63
2022-11-05T17:12:52.697Z,16.58
2022-11-05T17:15:31.128Z,13.93
2022-11-05T17:17:59.344Z,11.20
2022-11-05T17:20:54.964Z,12.32
2022-11-05T17:23:26.691Z,11.43
2022-11-05T17:26:02.120Z,11.10
2022-11-05T17:28:30.376Z,13.85
2022-11-05T17:31:00.951Z,15.43
2022-11-05T17:33:29.027Z,14.52
2022-11-05T17:35:56.893Z,13.70
2022-11-05T17:38:26.838Z,15.07
2022-11-05T17:40:54.226Z,11.50
2022-11-05T17:43:21.614Z,18.38
2022-11-05T17:45:52.303Z,11.60
2022-11-05T17:48:21.336Z,11.80
2022-11-05T17:50:50.928Z,13.27
2022-11-05T17:53:19.841Z,9.73
2022-11-05T17:55:48.075Z,11.45
2022-11-05T17:58:15.625Z,12.18
2022-11-05T18:00:45.071Z,12.38
2022-11-05T18:03:13.457Z,15.60
2022-11-05T18:05:42.152Z,10.75
2022-11-05T18:08:10.305Z,11.98
2022-11-05T18:10:39.865Z,13.18
2022-11-05T18:13:07.119Z,12.15
2022-11-05T18:15:36.317Z,14.07
2022-11-05T18:18:03.930Z,11.30
2022-11-05T18:20:31.395Z,12.43
2022-11-05T18:22:58.643Z,12.98
2022-11-05T18:25:26.353Z,13.57
2022-11-05T18:27:53.612Z,14.45
2022-11-05T18:30:21.049Z,13.50
2022-11-05T18:32:48.329Z,15.10
2022-11-05T18:35:15.794Z,12.60
2022-11-05T18:37:43.328Z,11.40
2022-11-05T18:40:12.006Z,14.18
2022-11-05T18:42:39.885Z,13.13
2022-11-05T18:45:09.635Z,13.38
2022-11-05T18:47:37.047Z,13.77
2022-11-05T18:50:06.404Z,13.45
2022-11-05T18:52:33.752Z,13.15
2022-11-05T18:55:01.081Z,12.90
2022-11-05T18:57:28.467Z,15.35
2022-11-05T18:59:55.692Z,14.20
2022-11-05T19:02:23.143Z,14.60
2022-11-05T19:05:22.054Z,15.30
2022-11-05T19:07:39.287Z,15.45
2022-11-05T19:10:07.855Z,15.38
2022-11-05T19:12:35.140Z,15.82
2022-11-05T19:15:03.208Z,14.18
2022-11-05T19:17:33.797Z,17.70
2022-11-05T19:20:01.670Z,17.15
2022-11-05T19:22:29.471Z,16.30
2022-11-05T19:24:56.705Z,18.20
2022-11-05T19:27:23.903Z,17.58
2022-11-05T19:29:51.707Z,28.33
2022-11-05T19:32:19.177Z,20.50
2022-11-05T19:34:46.948Z,20.48
2022-11-05T19:37:14.266Z,18.35
2022-11-05T19:39:41.783Z,16.60
2022-11-05T19:42:08.943Z,19.13
2022-11-05T19:44:36.151Z,16.58
2022-11-05T19:47:03.406Z,16.92
2022-11-05T19:49:30.661Z,19.05
2022-11-05T19:51:57.903Z,15.65
2022-11-05T19:54:25.086Z,15.38
2022-11-05T19:56:52.779Z,16.77
2022-11-05T19:59:20.056Z,16.70
2022-11-05T20:01:47.427Z,18.02
2022-11-05T20:04:14.835Z,18.35
2022-11-05T20:06:42.110Z,22.13
2022-11-05T20:09:22.716Z,16.30
2022-11-05T20:11:54.087Z,16.42
2022-11-05T20:14:21.590Z,22.27
2022-11-05T20:16:49.683Z,19.88
2022-11-05T20:19:20.317Z,20.33
2022-11-05T20:21:49.904Z,19.48
2022-11-05T20:24:24.701Z,17.38
2022-11-05T20:26:55.018Z,18.70
2022-11-05T20:29:27.877Z,20.85
2022-11-05T20:34:26.089Z,20.48
2022-11-05T20:36:53.437Z,18.65
2022-11-05T20:39:21.232Z,21.35
2022-11-05T20:41:48.364Z,22.40
2022-11-05T20:44:15.852Z,20.83
2022-11-05T20:46:43.061Z,26.88
2022-11-05T20:49:10.275Z,19.70
2022-11-05T20:51:37.749Z,19.00
2022-11-05T20:54:05.325Z,18.23
2022-11-05T20:56:35.303Z,22.42
2022-11-05T20:59:04.519Z,21.75
2022-11-05T21:01:34.183Z,19.15
2022-11-05T21:04:03.048Z,22.38
2022-11-05T21:06:32.081Z,19.02
2022-11-05T21:08:59.638Z,20.38
2022-11-05T21:11:26.970Z,21.25
2022-11-05T21:13:54.870Z,20.42
2022-11-05T21:16:22.661Z,20.20
2022-11-05T21:18:50.041Z,21.23
2022-11-05T21:21:20.543Z,26.42
2022-11-05T21:23:48.574Z,24.83
2022-11-05T21:26:17.800Z,21.77
2022-11-05T21:28:45.380Z,24.42
2022-11-05T21:31:12.698Z,23.20
2022-11-05T21:33:39.998Z,21.65
2022-11-05T21:36:11.929Z,23.05
2022-11-05T21:38:40.911Z,25.92
2022-11-05T21:41:11.697Z,21.85
2022-11-05T21:43:41.663Z,21.95
2022-11-05T21:46:12.475Z,20.52
2022-11-05T21:48:39.962Z,21.38
2022-11-05T21:51:26.061Z,23.23
2022-11-05T21:56:57.769Z,19.08
2022-11-05T21:59:44.476Z,22.27
2022-11-05T22:02:23.998Z,20.15
2022-11-05T22:04:56.341Z,27.65
2022-11-05T22:07:31.380Z,24.63
2022-11-05T22:09:59.105Z,23.60
2022-11-05T22:12:27.000Z,23.77
2022-11-05T22:14:54.960Z,24.42
2022-11-05T22:17:22.181Z,23.92
2022-11-05T22:19:50.103Z,26.15
2022-11-05T22:22:17.627Z,24.58
2022-11-05T22:24:46.195Z,24.38
2022-11-05T22:27:19.015Z,24.40
2022-11-05T22:29:46.378Z,24.23
2022-11-05T22:32:14.090Z,22.48
2022-11-05T22:34:41.795Z,27.88
2022-11-05T22:37:12.411Z,28.63
2022-11-05T22:39:39.651Z,25.95
2022-11-05T22:42:08.786Z,28.60
2022-11-05T22:44:36.835Z,23.08
2022-11-05T22:47:05.461Z,21.98
2022-11-05T22:49:33.620Z,21.92
2022-11-05T22:52:00.937Z,23.90
2022-11-05T22:54:28.255Z,21.17
2022-11-05T22:56:55.468Z,24.92
2022-11-05T22:59:23.047Z,23.65
2022-11-05T23:01:50.342Z,28.92
2022-11-05T23:04:17.791Z,20.92
2022-11-05T23:07:03.780Z,21.13
2022-11-05T23:09:53.268Z,21.80
2022-11-05T23:12:35.377Z,22.95
2022-11-05T23:15:06.651Z,26.27
2022-11-05T23:17:52.607Z,28.08
2022-11-05T23:20:42.356Z,30.23
2022-11-05T23:23:32.245Z,37.25
2022-11-05T23:26:20.724Z,39.05
2022-11-05T23:28:47.978Z,30.15
2022-11-05T23:31:33.643Z,25.20
2022-11-05T23:34:00.820Z,29.27
2022-11-05T23:36:46.989Z,24.58
2022-11-05T23:42:00.400Z,28.23
2022-11-05T23:47:32.112Z,23.95
2022-11-05T23:52:26.423Z,26.92
2022-11-05T23:54:53.580Z,23.27
2022-11-05T23:57:20.722Z,25.45
2022-11-05T23:59:47.947Z,23.95
